sensor_id;sensor_type;location;lat;lon;timestamp;P1;durP1;ratioP1;P2;durP2;ratioP2
21987;SDS011;11158;53.404;-1.510;2022-11-21T00:01:33;11.43;;;3.10;;
21987;SDS011;11158;53.404;-1.510;2022-11-21T00:04:02;7.10;;;2.92;;
21987;SDS011;11158;53.404;-1.510;2022-11-21T00:06:28;13.55;;;5.05;;
21987;SDS011;11158;53.404;-1.510;2022-11-21T00:08:54;13.57;;;5.68;;
21987;SDS011;11158;53.404;-1.510;2022-11-21T00:11:20;12.05;;;5.35;;
21987;SDS011;11158;53.404;-1.510;2022-11-21T00:13:46;13.55;;;4.75;;
21987;SDS011;11158;53.404;-1.510;2022-11-21T00:16:12;14.57;;;4.55;;
21987;SDS011;11158;53.404;-1.510;2022-11-21T00:18:43;9.00;;;4.05;;
21987;SDS011;11158;53.404;-1.510;2022-11-21T00:21:10;9.73;;;3.80;;
21987;SDS011;11158;53.404;-1.510;2022-11-21T00:23:39;12.90;;;3.40;;
21987;SDS011;11158;53.404;-1.510;2022-11-21T00:26:05;6.10;;;3.08;;
21987;SDS011;11158;53.404;-1.510;2022-11-21T00:28:32;9.02;;;3.88;;
21987;SDS011;11158;53.404;-1.510;2022-11-21T00:30:58;9.85;;;4.38;;
21987;SDS011;11158;53.404;-1.510;2022-11-21T00:33:24;8.20;;;4.50;;
21987;SDS011;11158;53.404;-1.510;2022-11-21T00:35:49;8.98;;;4.47;;
21987;SDS011;11158;53.404;-1.510;2022-11-21T00:38:15;7.22;;;3.83;;
21987;SDS011;11158;53.404;-1.510;2022-11-21T00:40:42;9.38;;;3.63;;
21987;SDS011;11158;53.404;-1.510;2022-11-21T00:43:08;5.65;;;3.10;;
21987;SDS011;11158;53.404;-1.510;2022-11-21T00:45:36;7.03;;;3.08;;
21987;SDS011;11158;53.404;-1.510;2022-11-21T00:48:01;6.07;;;3.45;;
21987;SDS011;11158;53.404;-1.510;2022-11-21T00:50:27;8.07;;;3.53;;
21987;SDS011;11158;53.404;-1.510;2022-11-21T00:52:54;6.75;;;2.80;;
21987;SDS011;11158;53.404;-1.510;2022-11-21T00:55:23;9.25;;;4.05;;
21987;SDS011;11158;53.404;-1.510;2022-11-21T00:57:50;18.20;;;3.92;;
21987;SDS011;11158;53.404;-1.510;2022-11-21T01:00:16;7.72;;;3.13;;
21987;SDS011;11158;53.404;-1.510;2022-11-21T01:02:42;8.25;;;2.80;;
21987;SDS011;11158;53.404;-1.510;2022-11-21T01:05:08;4.65;;;2.22;;
21987;SDS011;11158;53.404;-1.510;2022-11-21T01:07:35;9.73;;;2.03;;
21987;SDS011;11158;53.404;-1.510;2022-11-21T01:10:00;9.35;;;2.33;;
21987;SDS011;11158;53.404;-1.510;2022-11-21T01:12:26;8.27;;;2.65;;
21987;SDS011;11158;53.404;-1.510;2022-11-21T01:14:52;9.40;;;2.95;;
21987;SDS011;11158;53.404;-1.510;2022-11-21T01:17:18;8.45;;;2.63;;
21987;SDS011;11158;53.404;-1.510;2022-11-21T01:19:44;8.45;;;3.03;;
21987;SDS011;11158;53.404;-1.510;2022-11-21T01:22:10;10.38;;;3.20;;
21987;SDS011;11158;53.404;-1.510;2022-11-21T01:24:35;7.25;;;2.60;;
21987;SDS011;11158;53.404;-1.510;2022-11-21T01:27:01;9.98;;;3.30;;
21987;SDS011;11158;53.404;-1.510;2022-11-21T01:29:27;8.65;;;2.95;;
21987;SDS011;11158;53.404;-1.510;2022-11-21T01:31:53;6.18;;;2.55;;
21987;SDS011;11158;53.404;-1.510;2022-11-21T01:34:19;10.27;;;3.22;;
21987;SDS011;11158;53.404;-1.510;2022-11-21T01:36:45;13.43;;;2.83;;
21987;SDS011;11158;53.404;-1.510;2022-11-21T01:39:10;8.40;;;3.10;;
21987;SDS011;11158;53.404;-1.510;2022-11-21T01:41:38;13.50;;;2.50;;
21987;SDS011;11158;53.404;-1.510;2022-11-21T01:46:45;8.30;;;3.03;;
21987;SDS011;11158;53.404;-1.510;2022-11-21T01:52:00;13.73;;;4.07;;
21987;SDS011;11158;53.404;-1.510;2022-11-21T02:00:04;8.55;;;3.00;;
21987;SDS011;11158;53.404;-1.510;2022-11-21T02:02:33;8.70;;;3.17;;
21987;SDS011;11158;53.404;-1.510;2022-11-21T02:05:13;7.57;;;2.70;;
21987;SDS011;11158;53.404;-1.510;2022-11-21T02:07:44;6.35;;;2.35;;
21987;SDS011;11158;53.404;-1.510;2022-11-21T02:10:21;9.93;;;2.88;;
21987;SDS011;11158;53.404;-1.510;2022-11-21T02:12:51;10.38;;;2.92;;
21987;SDS011;11158;53.404;-1.510;2022-11-21T02:15:19;13.75;;;2.78;;
21987;SDS011;11158;53.404;-1.510;2022-11-21T02:17:47;5.68;;;2.35;;
21987;SDS011;11158;53.404;-1.510;2022-11-21T02:20:17;5.72;;;2.40;;
21987;SDS011;11158;53.404;-1.510;2022-11-21T02:25:30;9.82;;;2.85;;
21987;SDS011;11158;53.404;-1.510;2022-11-21T02:28:00;4.80;;;2.42;;
21987;SDS011;11158;53.404;-1.510;2022-11-21T02:30:32;6.45;;;2.20;;
21987;SDS011;11158;53.404;-1.510;2022-11-21T02:33:01;6.22;;;2.33;;
21987;SDS011;11158;53.404;-1.510;2022-11-21T02:35:26;8.52;;;2.65;;
21987;SDS011;11158;53.404;-1.510;2022-11-21T02:38:01;9.73;;;3.10;;
21987;SDS011;11158;53.404;-1.510;2022-11-21T02:40:33;9.85;;;2.63;;
21987;SDS011;11158;53.404;-1.510;2022-11-21T02:45:52;7.40;;;2.95;;
21987;SDS011;11158;53.404;-1.510;2022-11-21T02:48:18;11.82;;;3.22;;
21987;SDS011;11158;53.404;-1.510;2022-11-21T02:50:44;6.68;;;2.80;;
21987;SDS011;11158;53.404;-1.510;2022-11-21T02:53:15;13.10;;;2.88;;
21987;SDS011;11158;53.404;-1.510;2022-11-21T02:55:43;6.28;;;2.55;;
21987;SDS011;11158;53.404;-1.510;2022-11-21T02:58:09;4.65;;;2.40;;
21987;SDS011;11158;53.404;-1.510;2022-11-21T03:00:36;11.07;;;2.90;;
21987;SDS011;11158;53.404;-1.510;2022-11-21T03:03:03;5.53;;;2.30;;
21987;SDS011;11158;53.404;-1.510;2022-11-21T03:05:29;8.98;;;2.88;;
21987;SDS011;11158;53.404;-1.510;2022-11-21T03:07:55;11.10;;;3.08;;
21987;SDS011;11158;53.404;-1.510;2022-11-21T03:10:21;13.68;;;3.03;;
21987;SDS011;11158;53.404;-1.510;2022-11-21T03:12:48;8.40;;;2.22;;
21987;SDS011;11158;53.404;-1.510;2022-11-21T03:15:13;8.30;;;2.03;;
21987;SDS011;11158;53.404;-1.510;2022-11-21T03:17:40;7.82;;;2.13;;
21987;SDS011;11158;53.404;-1.510;2022-11-21T03:20:07;16.65;;;3.53;;
21987;SDS011;11158;53.404;-1.510;2022-11-21T03:22:33;6.50;;;2.45;;
21987;SDS011;11158;53.404;-1.510;2022-11-21T03:24:59;6.35;;;1.90;;
21987;SDS011;11158;53.404;-1.510;2022-11-21T03:27:25;9.07;;;2.50;;
21987;SDS011;11158;53.404;-1.510;2022-11-21T03:29:52;8.00;;;2.20;;
21987;SDS011;11158;53.404;-1.510;2022-11-21T03:32:17;11.27;;;2.60;;
21987;SDS011;11158;53.404;-1.510;2022-11-21T03:34:43;5.70;;;2.63;;
21987;SDS011;11158;53.404;-1.510;2022-11-21T03:37:09;15.75;;;2.35;;
21987;SDS011;11158;53.404;-1.510;2022-11-21T03:39:36;6.60;;;2.63;;
21987;SDS011;11158;53.404;-1.510;2022-11-21T03:42:01;8.93;;;2.30;;
21987;SDS011;11158;53.404;-1.510;2022-11-21T03:44:28;9.23;;;2.13;;
21987;SDS011;11158;53.404;-1.510;2022-11-21T03:46:54;6.30;;;2.20;;
21987;SDS011;11158;53.404;-1.510;2022-11-21T03:49:20;14.07;;;2.78;;
21987;SDS011;11158;53.404;-1.510;2022-11-21T03:51:45;7.57;;;2.20;;
21987;SDS011;11158;53.404;-1.510;2022-11-21T03:54:11;8.43;;;2.05;;
21987;SDS011;11158;53.404;-1.510;2022-11-21T03:56:37;4.60;;;2.22;;
21987;SDS011;11158;53.404;-1.510;2022-11-21T03:59:04;5.63;;;2.25;;
21987;SDS011;11158;53.404;-1.510;2022-11-21T04:01:30;11.15;;;2.75;;
21987;SDS011;11158;53.404;-1.510;2022-11-21T04:03:56;5.38;;;1.98;;
21987;SDS011;11158;53.404;-1.510;2022-11-21T04:06:22;13.02;;;2.30;;
21987;SDS011;11158;53.404;-1.510;2022-11-21T04:08:48;10.48;;;2.50;;
21987;SDS011;11158;53.404;-1.510;2022-11-21T04:11:15;6.53;;;1.92;;
21987;SDS011;11158;53.404;-1.510;2022-11-21T04:13:41;6.45;;;2.20;;
21987;SDS011;11158;53.404;-1.510;2022-11-21T04:16:07;5.45;;;2.10;;
21987;SDS011;11158;53.404;-1.510;2022-11-21T04:18:33;7.45;;;2.13;;
21987;SDS011;11158;53.404;-1.510;2022-11-21T04:21:01;12.15;;;2.50;;
21987;SDS011;11158;53.404;-1.510;2022-11-21T04:23:29;7.00;;;2.13;;
21987;SDS011;11158;53.404;-1.510;2022-11-21T04:25:58;6.38;;;2.13;;
21987;SDS011;11158;53.404;-1.510;2022-11-21T04:28:24;4.50;;;2.00;;
21987;SDS011;11158;53.404;-1.510;2022-11-21T04:30:50;8.05;;;2.67;;
21987;SDS011;11158;53.404;-1.510;2022-11-21T04:33:18;8.40;;;3.13;;
21987;SDS011;11158;53.404;-1.510;2022-11-21T04:35:44;7.88;;;2.30;;
21987;SDS011;11158;53.404;-1.510;2022-11-21T04:38:11;7.10;;;1.98;;
21987;SDS011;11158;53.404;-1.510;2022-11-21T04:40:38;9.40;;;2.25;;
21987;SDS011;11158;53.404;-1.510;2022-11-21T04:43:04;11.80;;;1.95;;
21987;SDS011;11158;53.404;-1.510;2022-11-21T04:45:30;5.35;;;2.05;;
21987;SDS011;11158;53.404;-1.510;2022-11-21T04:47:56;5.90;;;1.95;;
21987;SDS011;11158;53.404;-1.510;2022-11-21T04:50:22;5.57;;;1.67;;
21987;SDS011;11158;53.404;-1.510;2022-11-21T04:52:53;8.55;;;2.00;;
21987;SDS011;11158;53.404;-1.510;2022-11-21T04:55:21;9.40;;;2.13;;
21987;SDS011;11158;53.404;-1.510;2022-11-21T04:57:49;8.32;;;2.30;;
21987;SDS011;11158;53.404;-1.510;2022-11-21T05:00:15;3.45;;;1.48;;
21987;SDS011;11158;53.404;-1.510;2022-11-21T05:02:42;4.60;;;2.05;;
21987;SDS011;11158;53.404;-1.510;2022-11-21T05:05:08;9.73;;;2.17;;
21987;SDS011;11158;53.404;-1.510;2022-11-21T05:07:34;6.35;;;1.98;;
21987;SDS011;11158;53.404;-1.510;2022-11-21T05:10:00;7.18;;;1.73;;
21987;SDS011;11158;53.404;-1.510;2022-11-21T05:12:26;8.90;;;2.30;;
21987;SDS011;11158;53.404;-1.510;2022-11-21T05:15:10;9.10;;;2.10;;
21987;SDS011;11158;53.404;-1.510;2022-11-21T05:17:36;10.60;;;2.17;;
21987;SDS011;11158;53.404;-1.510;2022-11-21T05:20:02;10.38;;;3.03;;
21987;SDS011;11158;53.404;-1.510;2022-11-21T05:22:28;10.77;;;2.25;;
21987;SDS011;11158;53.404;-1.510;2022-11-21T05:24:54;3.10;;;1.70;;
21987;SDS011;11158;53.404;-1.510;2022-11-21T05:27:20;5.00;;;1.85;;
21987;SDS011;11158;53.404;-1.510;2022-11-21T05:29:45;7.60;;;2.47;;
21987;SDS011;11158;53.404;-1.510;2022-11-21T05:32:11;11.05;;;2.58;;
21987;SDS011;11158;53.404;-1.510;2022-11-21T05:34:37;4.35;;;2.08;;
21987;SDS011;11158;53.404;-1.510;2022-11-21T05:37:02;5.78;;;2.05;;
21987;SDS011;11158;53.404;-1.510;2022-11-21T05:39:28;9.40;;;2.15;;
21987;SDS011;11158;53.404;-1.510;2022-11-21T05:41:54;10.20;;;2.17;;
21987;SDS011;11158;53.404;-1.510;2022-11-21T05:44:19;9.77;;;2.10;;
21987;SDS011;11158;53.404;-1.510;2022-11-21T05:46:45;5.43;;;2.40;;
21987;SDS011;11158;53.404;-1.510;2022-11-21T05:49:11;6.80;;;2.53;;
21987;SDS011;11158;53.404;-1.510;2022-11-21T05:51:37;7.90;;;2.85;;
21987;SDS011;11158;53.404;-1.510;2022-11-21T05:54:03;7.07;;;2.40;;
21987;SDS011;11158;53.404;-1.510;2022-11-21T05:56:29;5.20;;;2.28;;
21987;SDS011;11158;53.404;-1.510;2022-11-21T05:58:55;9.95;;;2.45;;
21987;SDS011;11158;53.404;-1.510;2022-11-21T06:01:22;4.72;;;2.00;;
21987;SDS011;11158;53.404;-1.510;2022-11-21T06:04:07;7.00;;;2.65;;
21987;SDS011;11158;53.404;-1.510;2022-11-21T06:06:35;7.55;;;2.88;;
21987;SDS011;11158;53.404;-1.510;2022-11-21T06:09:01;9.32;;;2.90;;
21987;SDS011;11158;53.404;-1.510;2022-11-21T06:11:28;6.28;;;2.33;;
21987;SDS011;11158;53.404;-1.510;2022-11-21T06:13:54;8.13;;;2.40;;
21987;SDS011;11158;53.404;-1.510;2022-11-21T06:16:20;4.50;;;2.10;;
21987;SDS011;11158;53.404;-1.510;2022-11-21T06:18:49;5.78;;;2.33;;
21987;SDS011;11158;53.404;-1.510;2022-11-21T06:21:23;8.80;;;2.40;;
21987;SDS011;11158;53.404;-1.510;2022-11-21T06:23:52;6.43;;;2.97;;
21987;SDS011;11158;53.404;-1.510;2022-11-21T06:26:21;9.15;;;2.45;;
21987;SDS011;11158;53.404;-1.510;2022-11-21T06:28:50;6.95;;;2.45;;
21987;SDS011;11158;53.404;-1.510;2022-11-21T06:31:20;8.43;;;2.75;;
21987;SDS011;11158;53.404;-1.510;2022-11-21T06:33:50;6.18;;;3.15;;
21987;SDS011;11158;53.404;-1.510;2022-11-21T06:36:17;6.80;;;3.70;;
21987;SDS011;11158;53.404;-1.510;2022-11-21T06:38:43;10.13;;;3.20;;
21987;SDS011;11158;53.404;-1.510;2022-11-21T06:41:14;10.30;;;3.40;;
21987;SDS011;11158;53.404;-1.510;2022-11-21T06:43:42;7.32;;;3.47;;
21987;SDS011;11158;53.404;-1.510;2022-11-21T06:46:08;7.22;;;3.30;;
21987;SDS011;11158;53.404;-1.510;2022-11-21T06:48:35;8.85;;;3.95;;
21987;SDS011;11158;53.404;-1.510;2022-11-21T06:51:05;5.63;;;2.90;;
21987;SDS011;11158;53.404;-1.510;2022-11-21T06:53:32;5.97;;;2.67;;
21987;SDS011;11158;53.404;-1.510;2022-11-21T06:55:59;7.45;;;3.10;;
21987;SDS011;11158;53.404;-1.510;2022-11-21T06:58:25;11.75;;;3.63;;
21987;SDS011;11158;53.404;-1.510;2022-11-21T07:00:51;11.25;;;4.25;;
21987;SDS011;11158;53.404;-1.510;2022-11-21T07:03:17;7.50;;;3.30;;
21987;SDS011;11158;53.404;-1.510;2022-11-21T07:05:44;6.88;;;3.30;;
21987;SDS011;11158;53.404;-1.510;2022-11-21T07:08:10;10.95;;;3.60;;
21987;SDS011;11158;53.404;-1.510;2022-11-21T07:10:35;9.80;;;3.35;;
21987;SDS011;11158;53.404;-1.510;2022-11-21T07:13:01;11.02;;;3.88;;
21987;SDS011;11158;53.404;-1.510;2022-11-21T07:15:45;9.30;;;3.58;;
21987;SDS011;11158;53.404;-1.510;2022-11-21T07:18:12;9.23;;;3.53;;
21987;SDS011;11158;53.404;-1.510;2022-11-21T07:20:38;10.00;;;4.03;;
21987;SDS011;11158;53.404;-1.510;2022-11-21T07:23:05;11.10;;;4.68;;
21987;SDS011;11158;53.404;-1.510;2022-11-21T07:25:32;17.70;;;6.75;;
21987;SDS011;11158;53.404;-1.510;2022-11-21T07:27:58;11.48;;;5.57;;
21987;SDS011;11158;53.404;-1.510;2022-11-21T07:30:25;9.50;;;4.13;;
21987;SDS011;11158;53.404;-1.510;2022-11-21T07:32:58;7.90;;;4.18;;
21987;SDS011;11158;53.404;-1.510;2022-11-21T07:35:25;9.57;;;3.53;;
21987;SDS011;11158;53.404;-1.510;2022-11-21T07:37:52;6.85;;;3.42;;
21987;SDS011;11158;53.404;-1.510;2022-11-21T07:40:18;6.50;;;3.30;;
21987;SDS011;11158;53.404;-1.510;2022-11-21T07:42:44;11.80;;;4.95;;
21987;SDS011;11158;53.404;-1.510;2022-11-21T07:45:10;11.25;;;5.90;;
21987;SDS011;11158;53.404;-1.510;2022-11-21T07:47:37;12.00;;;5.85;;
21987;SDS011;11158;53.404;-1.510;2022-11-21T07:50:03;13.38;;;5.45;;
21987;SDS011;11158;53.404;-1.510;2022-11-21T07:52:30;14.13;;;7.20;;
21987;SDS011;11158;53.404;-1.510;2022-11-21T07:54:56;14.65;;;8.55;;
21987;SDS011;11158;53.404;-1.510;2022-11-21T07:57:22;9.25;;;5.88;;
21987;SDS011;11158;53.404;-1.510;2022-11-21T07:59:48;12.18;;;5.40;;
21987;SDS011;11158;53.404;-1.510;2022-11-21T08:02:17;12.23;;;5.32;;
21987;SDS011;11158;53.404;-1.510;2022-11-21T08:04:44;15.80;;;5.70;;
21987;SDS011;11158;53.404;-1.510;2022-11-21T08:07:10;10.20;;;6.05;;
21987;SDS011;11158;53.404;-1.510;2022-11-21T08:09:36;17.50;;;7.15;;
21987;SDS011;11158;53.404;-1.510;2022-11-21T08:12:02;12.27;;;6.22;;
21987;SDS011;11158;53.404;-1.510;2022-11-21T08:14:27;17.00;;;5.88;;
21987;SDS011;11158;53.404;-1.510;2022-11-21T08:16:53;11.95;;;6.40;;
21987;SDS011;11158;53.404;-1.510;2022-11-21T08:19:19;14.23;;;6.05;;
21987;SDS011;11158;53.404;-1.510;2022-11-21T08:21:46;11.00;;;5.78;;
21987;SDS011;11158;53.404;-1.510;2022-11-21T08:24:11;11.98;;;5.32;;
21987;SDS011;11158;53.404;-1.510;2022-11-21T08:26:39;12.40;;;6.10;;
21987;SDS011;11158;53.404;-1.510;2022-11-21T08:29:05;11.25;;;6.10;;
21987;SDS011;11158;53.404;-1.510;2022-11-21T08:31:31;13.70;;;6.25;;
21987;SDS011;11158;53.404;-1.510;2022-11-21T08:33:56;9.23;;;5.72;;
21987;SDS011;11158;53.404;-1.510;2022-11-21T08:36:23;11.15;;;5.60;;
21987;SDS011;11158;53.404;-1.510;2022-11-21T08:38:49;12.35;;;5.80;;
21987;SDS011;11158;53.404;-1.510;2022-11-21T08:41:14;14.65;;;7.25;;
21987;SDS011;11158;53.404;-1.510;2022-11-21T08:43:59;13.52;;;6.45;;
21987;SDS011;11158;53.404;-1.510;2022-11-21T08:46:24;9.52;;;6.50;;
21987;SDS011;11158;53.404;-1.510;2022-11-21T08:48:54;9.93;;;5.78;;
21987;SDS011;11158;53.404;-1.510;2022-11-21T08:51:20;12.27;;;6.30;;
21987;SDS011;11158;53.404;-1.510;2022-11-21T08:53:49;17.85;;;6.68;;
21987;SDS011;11158;53.404;-1.510;2022-11-21T08:56:15;13.02;;;6.10;;
21987;SDS011;11158;53.404;-1.510;2022-11-21T08:58:41;13.48;;;6.53;;
21987;SDS011;11158;53.404;-1.510;2022-11-21T09:01:07;14.63;;;7.10;;
21987;SDS011;11158;53.404;-1.510;2022-11-21T09:03:32;16.50;;;8.25;;
21987;SDS011;11158;53.404;-1.510;2022-11-21T09:05:59;17.30;;;8.05;;
21987;SDS011;11158;53.404;-1.510;2022-11-21T09:08:24;16.98;;;7.97;;
21987;SDS011;11158;53.404;-1.510;2022-11-21T09:10:50;19.65;;;9.30;;
21987;SDS011;11158;53.404;-1.510;2022-11-21T09:13:17;14.90;;;7.20;;
21987;SDS011;11158;53.404;-1.510;2022-11-21T09:15:43;18.58;;;8.10;;
21987;SDS011;11158;53.404;-1.510;2022-11-21T09:18:27;11.60;;;6.43;;
21987;SDS011;11158;53.404;-1.510;2022-11-21T09:20:53;13.85;;;7.43;;
21987;SDS011;11158;53.404;-1.510;2022-11-21T09:23:18;15.07;;;7.88;;
21987;SDS011;11158;53.404;-1.510;2022-11-21T09:25:44;19.10;;;7.88;;
21987;SDS011;11158;53.404;-1.510;2022-11-21T09:28:10;15.60;;;8.10;;
21987;SDS011;11158;53.404;-1.510;2022-11-21T09:30:38;15.40;;;8.10;;
21987;SDS011;11158;53.404;-1.510;2022-11-21T09:33:11;20.38;;;9.20;;
21987;SDS011;11158;53.404;-1.510;2022-11-21T09:35:38;16.88;;;7.80;;
21987;SDS011;11158;53.404;-1.510;2022-11-21T09:38:04;19.42;;;8.75;;
21987;SDS011;11158;53.404;-1.510;2022-11-21T09:40:30;22.48;;;8.80;;
21987;SDS011;11158;53.404;-1.510;2022-11-21T09:45:53;20.13;;;9.82;;
21987;SDS011;11158;53.404;-1.510;2022-11-21T09:48:27;20.25;;;8.75;;
21987;SDS011;11158;53.404;-1.510;2022-11-21T09:51:10;16.13;;;8.18;;
21987;SDS011;11158;53.404;-1.510;2022-11-21T09:53:39;16.23;;;8.25;;
21987;SDS011;11158;53.404;-1.510;2022-11-21T09:56:16;16.10;;;8.02;;
21987;SDS011;11158;53.404;-1.510;2022-11-21T10:01:15;14.68;;;8.00;;
21987;SDS011;11158;53.404;-1.510;2022-11-21T10:03:45;15.02;;;8.07;;
21987;SDS011;11158;53.404;-1.510;2022-11-21T10:08:51;25.67;;;14.20;;
21987;SDS011;11158;53.404;-1.510;2022-11-21T10:25:49;12.95;;;8.43;;
21987;SDS011;11158;53.404;-1.510;2022-11-21T10:31:21;23.90;;;8.73;;
21987;SDS011;11158;53.404;-1.510;2022-11-21T10:33:48;19.20;;;9.38;;
21987;SDS011;11158;53.404;-1.510;2022-11-21T10:38:55;17.98;;;7.80;;
21987;SDS011;11158;53.404;-1.510;2022-11-21T10:44:16;25.35;;;7.45;;
21987;SDS011;11158;53.404;-1.510;2022-11-21T10:47:11;16.92;;;6.70;;
21987;SDS011;11158;53.404;-1.510;2022-11-21T10:52:44;16.40;;;6.88;;
21987;SDS011;11158;53.404;-1.510;2022-11-21T10:55:14;11.50;;;5.55;;
21987;SDS011;11158;53.404;-1.510;2022-11-21T10:57:45;11.95;;;5.45;;
21987;SDS011;11158;53.404;-1.510;2022-11-21T11:03:19;17.27;;;5.78;;
21987;SDS011;11158;53.404;-1.510;2022-11-21T11:05:32;12.27;;;5.20;;
21987;SDS011;11158;53.404;-1.510;2022-11-21T11:10:28;23.35;;;6.40;;
21987;SDS011;11158;53.404;-1.510;2022-11-21T11:12:55;17.42;;;6.03;;
21987;SDS011;11158;53.404;-1.510;2022-11-21T11:16:22;17.60;;;5.00;;
21987;SDS011;11158;53.404;-1.510;2022-11-21T11:18:54;13.23;;;4.70;;
21987;SDS011;11158;53.404;-1.510;2022-11-21T11:26:34;11.88;;;5.45;;
21987;SDS011;11158;53.404;-1.510;2022-11-21T11:31:42;12.90;;;5.88;;
21987;SDS011;11158;53.404;-1.510;2022-11-21T11:34:14;20.20;;;5.53;;
21987;SDS011;11158;53.404;-1.510;2022-11-21T11:39:16;16.90;;;5.32;;
21987;SDS011;11158;53.404;-1.510;2022-11-21T11:44:51;10.50;;;5.20;;
21987;SDS011;11158;53.404;-1.510;2022-11-21T11:47:40;13.52;;;5.43;;
21987;SDS011;11158;53.404;-1.510;2022-11-21T11:50:14;11.50;;;5.35;;
21987;SDS011;11158;53.404;-1.510;2022-11-21T11:58:32;17.60;;;6.18;;
21987;SDS011;11158;53.404;-1.510;2022-11-21T12:02:14;13.05;;;5.60;;
21987;SDS011;11158;53.404;-1.510;2022-11-21T12:04:22;18.80;;;6.30;;
21987;SDS011;11158;53.404;-1.510;2022-11-21T12:06:50;12.35;;;5.72;;
21987;SDS011;11158;53.404;-1.510;2022-11-21T12:20:29;16.95;;;6.65;;
21987;SDS011;11158;53.404;-1.510;2022-11-21T12:23:01;10.52;;;5.57;;
21987;SDS011;11158;53.404;-1.510;2022-11-21T12:25:30;14.00;;;5.93;;
21987;SDS011;11158;53.404;-1.510;2022-11-21T12:28:02;11.27;;;5.90;;
21987;SDS011;11158;53.404;-1.510;2022-11-21T12:30:48;13.52;;;6.25;;
21987;SDS011;11158;53.404;-1.510;2022-11-21T12:33:22;55.92;;;45.65;;
21987;SDS011;11158;53.404;-1.510;2022-11-21T12:41:46;15.55;;;5.53;;
21987;SDS011;11158;53.404;-1.510;2022-11-21T12:47:18;18.10;;;5.03;;
21987;SDS011;11158;53.404;-1.510;2022-11-21T12:52:47;17.33;;;5.30;;
21987;SDS011;11158;53.404;-1.510;2022-11-21T12:55:37;13.02;;;4.60;;
21987;SDS011;11158;53.404;-1.510;2022-11-21T12:58:08;12.70;;;5.47;;
21987;SDS011;11158;53.404;-1.510;2022-11-21T13:06:20;13.80;;;5.35;;
21987;SDS011;11158;53.404;-1.510;2022-11-21T13:08:49;17.63;;;5.40;;
21987;SDS011;11158;53.404;-1.510;2022-11-21T13:36:09;16.58;;;4.97;;
21987;SDS011;11158;53.404;-1.510;2022-11-21T13:39:23;14.35;;;5.03;;
21987;SDS011;11158;53.404;-1.510;2022-11-21T13:46:56;14.63;;;5.50;;
21987;SDS011;11158;53.404;-1.510;2022-11-21T13:52:06;17.75;;;5.25;;
21987;SDS011;11158;53.404;-1.510;2022-11-21T14:00:01;21.45;;;5.38;;
21987;SDS011;11158;53.404;-1.510;2022-11-21T14:05:58;14.57;;;5.72;;
21987;SDS011;11158;53.404;-1.510;2022-11-21T14:08:26;14.45;;;5.38;;
21987;SDS011;11158;53.404;-1.510;2022-11-21T14:10:54;12.65;;;4.78;;
21987;SDS011;11158;53.404;-1.510;2022-11-21T14:13:30;14.90;;;5.40;;
21987;SDS011;11158;53.404;-1.510;2022-11-21T14:18:43;14.82;;;4.88;;
21987;SDS011;11158;53.404;-1.510;2022-11-21T14:21:20;14.18;;;5.75;;
21987;SDS011;11158;53.404;-1.510;2022-11-21T14:23:51;14.27;;;5.60;;
21987;SDS011;11158;53.404;-1.510;2022-11-21T14:26:21;15.95;;;6.45;;
21987;SDS011;11158;53.404;-1.510;2022-11-21T14:28:49;22.27;;;6.40;;
21987;SDS011;11158;53.404;-1.510;2022-11-21T14:31:16;15.80;;;6.18;;
21987;SDS011;11158;53.404;-1.510;2022-11-21T14:33:43;26.38;;;7.40;;
21987;SDS011;11158;53.404;-1.510;2022-11-21T14:36:20;19.55;;;5.82;;
21987;SDS011;11158;53.404;-1.510;2022-11-21T14:38:48;17.38;;;8.02;;
21987;SDS011;11158;53.404;-1.510;2022-11-21T14:46:29;35.75;;;10.45;;
21987;SDS011;11158;53.404;-1.510;2022-11-21T14:51:49;22.63;;;9.55;;
21987;SDS011;11158;53.404;-1.510;2022-11-21T14:54:21;24.63;;;9.50;;
21987;SDS011;11158;53.404;-1.510;2022-11-21T14:56:56;20.50;;;9.45;;
21987;SDS011;11158;53.404;-1.510;2022-11-21T14:59:25;22.70;;;8.73;;
21987;SDS011;11158;53.404;-1.510;2022-11-21T15:02:02;21.00;;;9.43;;
21987;SDS011;11158;53.404;-1.510;2022-11-21T15:04:34;19.63;;;8.45;;
21987;SDS011;11158;53.404;-1.510;2022-11-21T15:07:01;20.33;;;9.02;;
21987;SDS011;11158;53.404;-1.510;2022-11-21T15:09:28;24.20;;;12.75;;
21987;SDS011;11158;53.404;-1.510;2022-11-21T15:11:57;19.02;;;8.95;;
21987;SDS011;11158;53.404;-1.510;2022-11-21T15:17:28;19.60;;;8.32;;
21987;SDS011;11158;53.404;-1.510;2022-11-21T15:20:05;31.52;;;9.13;;
21987;SDS011;11158;53.404;-1.510;2022-11-21T15:22:41;254.57;;;32.28;;
21987;SDS011;11158;53.404;-1.510;2022-11-21T15:25:07;140.25;;;16.67;;
21987;SDS011;11158;53.404;-1.510;2022-11-21T15:35:43;78.80;;;15.82;;
21987;SDS011;11158;53.404;-1.510;2022-11-21T15:40:54;25.30;;;12.10;;
21987;SDS011;11158;53.404;-1.510;2022-11-21T15:46:38;206.90;;;26.23;;
21987;SDS011;11158;53.404;-1.510;2022-11-21T15:54:02;55.15;;;14.20;;
21987;SDS011;11158;53.404;-1.510;2022-11-21T15:56:28;24.65;;;11.85;;
21987;SDS011;11158;53.404;-1.510;2022-11-21T15:58:54;23.27;;;11.18;;
21987;SDS011;11158;53.404;-1.510;2022-11-21T16:01:21;24.45;;;10.65;;
21987;SDS011;11158;53.404;-1.510;2022-11-21T16:03:49;25.15;;;9.23;;
21987;SDS011;11158;53.404;-1.510;2022-11-21T16:06:18;20.83;;;9.63;;
21987;SDS011;11158;53.404;-1.510;2022-11-21T16:08:44;22.42;;;9.23;;
21987;SDS011;11158;53.404;-1.510;2022-11-21T16:11:15;21.35;;;9.50;;
21987;SDS011;11158;53.404;-1.510;2022-11-21T16:13:48;48.22;;;10.07;;
21987;SDS011;11158;53.404;-1.510;2022-11-21T16:16:15;16.95;;;8.82;;
21987;SDS011;11158;53.404;-1.510;2022-11-21T16:18:41;23.40;;;11.50;;
21987;SDS011;11158;53.404;-1.510;2022-11-21T16:21:07;24.98;;;11.80;;
21987;SDS011;11158;53.404;-1.510;2022-11-21T16:23:34;27.85;;;11.73;;
21987;SDS011;11158;53.404;-1.510;2022-11-21T16:26:00;31.63;;;11.32;;
21987;SDS011;11158;53.404;-1.510;2022-11-21T16:28:26;32.92;;;12.63;;
21987;SDS011;11158;53.404;-1.510;2022-11-21T16:30:52;26.00;;;12.75;;
21987;SDS011;11158;53.404;-1.510;2022-11-21T16:33:18;27.40;;;14.52;;
21987;SDS011;11158;53.404;-1.510;2022-11-21T16:35:43;29.88;;;13.13;;
21987;SDS011;11158;53.404;-1.510;2022-11-21T16:38:09;22.58;;;10.63;;
21987;SDS011;11158;53.404;-1.510;2022-11-21T16:40:36;25.65;;;11.13;;
21987;SDS011;11158;53.404;-1.510;2022-11-21T16:43:07;170.15;;;22.55;;
21987;SDS011;11158;53.404;-1.510;2022-11-21T16:45:35;28.45;;;13.85;;
21987;SDS011;11158;53.404;-1.510;2022-11-21T16:48:02;27.65;;;11.10;;
21987;SDS011;11158;53.404;-1.510;2022-11-21T16:50:28;21.70;;;11.65;;
21987;SDS011;11158;53.404;-1.510;2022-11-21T16:52:53;18.40;;;11.27;;
21987;SDS011;11158;53.404;-1.510;2022-11-21T16:55:19;20.67;;;13.50;;
21987;SDS011;11158;53.404;-1.510;2022-11-21T16:57:45;25.05;;;13.07;;
21987;SDS011;11158;53.404;-1.510;2022-11-21T17:00:11;22.15;;;10.18;;
21987;SDS011;11158;53.404;-1.510;2022-11-21T17:02:37;28.73;;;11.80;;
21987;SDS011;11158;53.404;-1.510;2022-11-21T17:05:06;20.98;;;10.27;;
21987;SDS011;11158;53.404;-1.510;2022-11-21T17:07:32;23.80;;;10.27;;
21987;SDS011;11158;53.404;-1.510;2022-11-21T17:09:59;25.40;;;9.20;;
21987;SDS011;11158;53.404;-1.510;2022-11-21T17:12:25;31.02;;;13.95;;
21987;SDS011;11158;53.404;-1.510;2022-11-21T17:14:51;18.88;;;9.20;;
21987;SDS011;11158;53.404;-1.510;2022-11-21T17:17:17;24.85;;;11.55;;
21987;SDS011;11158;53.404;-1.510;2022-11-21T17:19:43;22.33;;;10.48;;
21987;SDS011;11158;53.404;-1.510;2022-11-21T17:22:09;27.55;;;9.18;;
21987;SDS011;11158;53.404;-1.510;2022-11-21T17:24:35;19.77;;;8.93;;
21987;SDS011;11158;53.404;-1.510;2022-11-21T17:27:01;21.08;;;9.25;;
21987;SDS011;11158;53.404;-1.510;2022-11-21T17:29:27;18.33;;;8.90;;
21987;SDS011;11158;53.404;-1.510;2022-11-21T17:31:53;21.42;;;10.02;;